sensor_id;sensor_type;location;lat;lon;timestamp;P1;durP1;ratioP1;P2;durP2;ratioP2
27728;SDS011;15126;42.186;24.340;2022-11-21T00:00:20;16.37;;;11.73;;
27728;SDS011;15126;42.186;24.340;2022-11-21T00:02:47;14.97;;;12.33;;
27728;SDS011;15126;42.186;24.340;2022-11-21T00:05:14;17.77;;;11.87;;
27728;SDS011;15126;42.186;24.340;2022-11-21T00:07:41;15.23;;;13.60;;
27728;SDS011;15126;42.186;24.340;2022-11-21T00:10:08;14.27;;;11.67;;
27728;SDS011;15126;42.186;24.340;2022-11-21T00:12:35;15.50;;;12.27;;
27728;SDS011;15126;42.186;24.340;2022-11-21T00:15:03;18.27;;;12.97;;
27728;SDS011;15126;42.186;24.340;2022-11-21T00:17:31;17.53;;;13.23;;
27728;SDS011;15126;42.186;24.340;2022-11-21T00:19:58;16.77;;;12.97;;
27728;SDS011;15126;42.186;24.340;2022-11-21T00:22:24;17.60;;;14.47;;
27728;SDS011;15126;42.186;24.340;2022-11-21T00:24:51;20.77;;;14.27;;
27728;SDS011;15126;42.186;24.340;2022-11-21T00:27:18;16.33;;;14.73;;
27728;SDS011;15126;42.186;24.340;2022-11-21T00:29:45;15.87;;;14.17;;
27728;SDS011;15126;42.186;24.340;2022-11-21T00:32:13;16.60;;;14.47;;
27728;SDS011;15126;42.186;24.340;2022-11-21T00:34:40;19.93;;;15.03;;
27728;SDS011;15126;42.186;24.340;2022-11-21T00:37:07;16.83;;;14.50;;
27728;SDS011;15126;42.186;24.340;2022-11-21T00:39:33;19.20;;;14.37;;
27728;SDS011;15126;42.186;24.340;2022-11-21T00:42:00;15.53;;;13.70;;
27728;SDS011;15126;42.186;24.340;2022-11-21T00:44:27;16.00;;;13.07;;
27728;SDS011;15126;42.186;24.340;2022-11-21T00:46:54;16.37;;;14.67;;
27728;SDS011;15126;42.186;24.340;2022-11-21T00:49:22;18.03;;;14.67;;
27728;SDS011;15126;42.186;24.340;2022-11-21T00:51:49;16.30;;;13.47;;
27728;SDS011;15126;42.186;24.340;2022-11-21T00:54:16;18.97;;;14.23;;
27728;SDS011;15126;42.186;24.340;2022-11-21T00:56:43;17.70;;;13.07;;
27728;SDS011;15126;42.186;24.340;2022-11-21T00:59:09;17.07;;;13.20;;
27728;SDS011;15126;42.186;24.340;2022-11-21T01:01:36;18.43;;;13.27;;
27728;SDS011;15126;42.186;24.340;2022-11-21T01:04:03;16.43;;;13.37;;
27728;SDS011;15126;42.186;24.340;2022-11-21T01:06:32;16.73;;;13.90;;
27728;SDS011;15126;42.186;24.340;2022-11-21T01:08:59;14.90;;;13.37;;
27728;SDS011;15126;42.186;24.340;2022-11-21T01:11:25;16.03;;;12.90;;
27728;SDS011;15126;42.186;24.340;2022-11-21T01:13:52;15.77;;;12.47;;
27728;SDS011;15126;42.186;24.340;2022-11-21T01:16:20;20.67;;;11.60;;
27728;SDS011;15126;42.186;24.340;2022-11-21T01:18:48;11.53;;;10.37;;
27728;SDS011;15126;42.186;24.340;2022-11-21T01:21:17;12.63;;;10.10;;
27728;SDS011;15126;42.186;24.340;2022-11-21T01:23:46;11.97;;;9.67;;
27728;SDS011;15126;42.186;24.340;2022-11-21T01:26:14;15.43;;;9.50;;
27728;SDS011;15126;42.186;24.340;2022-11-21T01:28:42;12.70;;;10.07;;
27728;SDS011;15126;42.186;24.340;2022-11-21T01:31:10;13.50;;;10.03;;
27728;SDS011;15126;42.186;24.340;2022-11-21T01:33:38;13.70;;;11.37;;
27728;SDS011;15126;42.186;24.340;2022-11-21T01:36:06;15.00;;;11.80;;
27728;SDS011;15126;42.186;24.340;2022-11-21T01:38:35;18.77;;;11.87;;
27728;SDS011;15126;42.186;24.340;2022-11-21T01:41:03;20.37;;;12.53;;
27728;SDS011;15126;42.186;24.340;2022-11-21T01:43:30;10.93;;;9.27;;
27728;SDS011;15126;42.186;24.340;2022-11-21T01:45:58;13.33;;;8.40;;
27728;SDS011;15126;42.186;24.340;2022-11-21T01:48:27;12.07;;;9.53;;
27728;SDS011;15126;42.186;24.340;2022-11-21T01:50:59;14.07;;;10.27;;
27728;SDS011;15126;42.186;24.340;2022-11-21T01:53:35;9.93;;;7.93;;
27728;SDS011;15126;42.186;24.340;2022-11-21T01:56:06;13.10;;;8.20;;
27728;SDS011;15126;42.186;24.340;2022-11-21T01:58:34;14.00;;;8.43;;
27728;SDS011;15126;42.186;24.340;2022-11-21T02:01:03;11.50;;;7.47;;
27728;SDS011;15126;42.186;24.340;2022-11-21T02:03:31;8.17;;;6.70;;
27728;SDS011;15126;42.186;24.340;2022-11-21T02:06:02;12.20;;;6.87;;
27728;SDS011;15126;42.186;24.340;2022-11-21T02:08:31;10.40;;;7.70;;
27728;SDS011;15126;42.186;24.340;2022-11-21T02:11:01;13.53;;;8.13;;
27728;SDS011;15126;42.186;24.340;2022-11-21T02:13:36;11.00;;;7.53;;
27728;SDS011;15126;42.186;24.340;2022-11-21T02:16:04;8.53;;;6.97;;
27728;SDS011;15126;42.186;24.340;2022-11-21T02:18:32;7.97;;;5.80;;
27728;SDS011;15126;42.186;24.340;2022-11-21T02:20:59;6.23;;;5.63;;
27728;SDS011;15126;42.186;24.340;2022-11-21T02:23:36;6.70;;;5.83;;
27728;SDS011;15126;42.186;24.340;2022-11-21T02:26:08;7.60;;;5.70;;
27728;SDS011;15126;42.186;24.340;2022-11-21T02:28:36;7.77;;;6.97;;
27728;SDS011;15126;42.186;24.340;2022-11-21T02:31:03;12.20;;;7.07;;
27728;SDS011;15126;42.186;24.340;2022-11-21T02:33:29;8.10;;;6.70;;
27728;SDS011;15126;42.186;24.340;2022-11-21T02:35:57;8.13;;;7.37;;
27728;SDS011;15126;42.186;24.340;2022-11-21T02:38:26;9.50;;;8.47;;
27728;SDS011;15126;42.186;24.340;2022-11-21T02:40:57;16.13;;;11.27;;
27728;SDS011;15126;42.186;24.340;2022-11-21T02:43:30;16.47;;;14.67;;
27728;SDS011;15126;42.186;24.340;2022-11-21T02:46:01;16.20;;;14.50;;
27728;SDS011;15126;42.186;24.340;2022-11-21T02:48:29;12.50;;;10.13;;
27728;SDS011;15126;42.186;24.340;2022-11-21T02:50:56;9.60;;;8.70;;
27728;SDS011;15126;42.186;24.340;2022-11-21T02:53:23;10.93;;;9.73;;
27728;SDS011;15126;42.186;24.340;2022-11-21T02:55:49;11.33;;;9.57;;
27728;SDS011;15126;42.186;24.340;2022-11-21T02:58:16;11.60;;;9.80;;
27728;SDS011;15126;42.186;24.340;2022-11-21T03:00:45;12.63;;;9.43;;
27728;SDS011;15126;42.186;24.340;2022-11-21T03:03:12;10.03;;;8.90;;
27728;SDS011;15126;42.186;24.340;2022-11-21T03:05:39;15.67;;;11.70;;
27728;SDS011;15126;42.186;24.340;2022-11-21T03:08:07;9.07;;;8.10;;
27728;SDS011;15126;42.186;24.340;2022-11-21T03:10:34;14.67;;;8.60;;
27728;SDS011;15126;42.186;24.340;2022-11-21T03:13:01;10.90;;;8.10;;
27728;SDS011;15126;42.186;24.340;2022-11-21T03:15:29;10.77;;;9.67;;
27728;SDS011;15126;42.186;24.340;2022-11-21T03:17:58;11.80;;;9.20;;
27728;SDS011;15126;42.186;24.340;2022-11-21T03:20:26;9.80;;;8.60;;
27728;SDS011;15126;42.186;24.340;2022-11-21T03:22:54;8.80;;;8.00;;
27728;SDS011;15126;42.186;24.340;2022-11-21T03:25:20;11.40;;;8.23;;
27728;SDS011;15126;42.186;24.340;2022-11-21T03:27:49;9.57;;;8.67;;
27728;SDS011;15126;42.186;24.340;2022-11-21T03:30:16;10.93;;;8.57;;
27728;SDS011;15126;42.186;24.340;2022-11-21T03:32:43;12.47;;;8.60;;
27728;SDS011;15126;42.186;24.340;2022-11-21T03:35:11;10.00;;;7.13;;
27728;SDS011;15126;42.186;24.340;2022-11-21T03:37:38;9.83;;;8.03;;
27728;SDS011;15126;42.186;24.340;2022-11-21T03:40:05;12.07;;;8.73;;
27728;SDS011;15126;42.186;24.340;2022-11-21T03:42:33;9.67;;;7.30;;
27728;SDS011;15126;42.186;24.340;2022-11-21T03:45:00;8.07;;;7.27;;
27728;SDS011;15126;42.186;24.340;2022-11-21T03:47:26;10.13;;;7.10;;
27728;SDS011;15126;42.186;24.340;2022-11-21T03:49:53;12.17;;;8.57;;
27728;SDS011;15126;42.186;24.340;2022-11-21T03:52:21;10.27;;;8.17;;
27728;SDS011;15126;42.186;24.340;2022-11-21T03:54:48;10.00;;;7.73;;
27728;SDS011;15126;42.186;24.340;2022-11-21T03:57:15;10.27;;;8.70;;
27728;SDS011;15126;42.186;24.340;2022-11-21T03:59:43;12.00;;;7.90;;
27728;SDS011;15126;42.186;24.340;2022-11-21T04:02:09;8.33;;;7.53;;
27728;SDS011;15126;42.186;24.340;2022-11-21T04:04:36;10.60;;;9.47;;
27728;SDS011;15126;42.186;24.340;2022-11-21T04:07:03;10.27;;;8.30;;
27728;SDS011;15126;42.186;24.340;2022-11-21T04:09:31;9.77;;;8.77;;
27728;SDS011;15126;42.186;24.340;2022-11-21T04:11:58;12.33;;;8.97;;
27728;SDS011;15126;42.186;24.340;2022-11-21T04:14:25;17.47;;;9.97;;
27728;SDS011;15126;42.186;24.340;2022-11-21T04:16:52;10.03;;;8.87;;
27728;SDS011;15126;42.186;24.340;2022-11-21T04:19:19;10.83;;;8.83;;
27728;SDS011;15126;42.186;24.340;2022-11-21T04:21:45;11.43;;;9.67;;
27728;SDS011;15126;42.186;24.340;2022-11-21T04:24:12;11.10;;;7.30;;
27728;SDS011;15126;42.186;24.340;2022-11-21T04:26:40;13.87;;;7.30;;
27728;SDS011;15126;42.186;24.340;2022-11-21T04:29:07;13.03;;;7.87;;
27728;SDS011;15126;42.186;24.340;2022-11-21T04:31:34;10.93;;;7.00;;
27728;SDS011;15126;42.186;24.340;2022-11-21T04:34:01;8.00;;;6.20;;
27728;SDS011;15126;42.186;24.340;2022-11-21T04:36:28;6.60;;;6.00;;
27728;SDS011;15126;42.186;24.340;2022-11-21T04:38:55;6.23;;;5.63;;
27728;SDS011;15126;42.186;24.340;2022-11-21T04:41:21;6.77;;;6.00;;
27728;SDS011;15126;42.186;24.340;2022-11-21T04:43:50;9.63;;;7.07;;
27728;SDS011;15126;42.186;24.340;2022-11-21T04:46:16;8.80;;;7.90;;
27728;SDS011;15126;42.186;24.340;2022-11-21T04:48:43;9.10;;;6.40;;
27728;SDS011;15126;42.186;24.340;2022-11-21T04:51:10;10.10;;;7.13;;
27728;SDS011;15126;42.186;24.340;2022-11-21T04:53:37;8.07;;;6.83;;
27728;SDS011;15126;42.186;24.340;2022-11-21T04:56:04;9.17;;;7.33;;
27728;SDS011;15126;42.186;24.340;2022-11-21T04:58:32;11.17;;;4.07;;
27728;SDS011;15126;42.186;24.340;2022-11-21T05:01:05;5.77;;;3.80;;
27728;SDS011;15126;42.186;24.340;2022-11-21T05:03:33;5.30;;;3.87;;
27728;SDS011;15126;42.186;24.340;2022-11-21T05:05:59;7.63;;;3.87;;
27728;SDS011;15126;42.186;24.340;2022-11-21T05:08:26;6.93;;;3.90;;
27728;SDS011;15126;42.186;24.340;2022-11-21T05:10:53;7.80;;;4.37;;
27728;SDS011;15126;42.186;24.340;2022-11-21T05:13:38;6.57;;;4.33;;
27728;SDS011;15126;42.186;24.340;2022-11-21T05:16:06;8.27;;;5.57;;
27728;SDS011;15126;42.186;24.340;2022-11-21T05:18:33;13.30;;;6.10;;
27728;SDS011;15126;42.186;24.340;2022-11-21T05:21:00;11.00;;;5.20;;
27728;SDS011;15126;42.186;24.340;2022-11-21T05:23:27;12.93;;;6.57;;
27728;SDS011;15126;42.186;24.340;2022-11-21T05:25:54;12.43;;;7.70;;
27728;SDS011;15126;42.186;24.340;2022-11-21T05:28:21;15.10;;;9.23;;
27728;SDS011;15126;42.186;24.340;2022-11-21T05:30:48;19.27;;;11.17;;
27728;SDS011;15126;42.186;24.340;2022-11-21T05:33:16;21.07;;;10.60;;
27728;SDS011;15126;42.186;24.340;2022-11-21T05:35:43;20.57;;;11.70;;
27728;SDS011;15126;42.186;24.340;2022-11-21T05:38:10;19.53;;;12.30;;
27728;SDS011;15126;42.186;24.340;2022-11-21T05:40:37;23.27;;;15.07;;
27728;SDS011;15126;42.186;24.340;2022-11-21T05:43:03;20.00;;;15.83;;
27728;SDS011;15126;42.186;24.340;2022-11-21T05:45:48;22.17;;;15.77;;
27728;SDS011;15126;42.186;24.340;2022-11-21T05:48:16;20.23;;;14.57;;
27728;SDS011;15126;42.186;24.340;2022-11-21T05:50:45;26.80;;;15.17;;
27728;SDS011;15126;42.186;24.340;2022-11-21T05:53:12;23.00;;;15.83;;
27728;SDS011;15126;42.186;24.340;2022-11-21T05:55:39;28.93;;;16.67;;
27728;SDS011;15126;42.186;24.340;2022-11-21T05:58:06;23.30;;;15.27;;
27728;SDS011;15126;42.186;24.340;2022-11-21T06:00:35;19.93;;;17.33;;
27728;SDS011;15126;42.186;24.340;2022-11-21T06:03:05;21.13;;;16.17;;
27728;SDS011;15126;42.186;24.340;2022-11-21T06:05:56;26.50;;;19.00;;
27728;SDS011;15126;42.186;24.340;2022-11-21T06:08:24;24.87;;;17.70;;
27728;SDS011;15126;42.186;24.340;2022-11-21T06:10:52;25.53;;;17.93;;
27728;SDS011;15126;42.186;24.340;2022-11-21T06:13:18;28.67;;;19.50;;
27728;SDS011;15126;42.186;24.340;2022-11-21T06:15:52;28.87;;;20.30;;
27728;SDS011;15126;42.186;24.340;2022-11-21T06:18:21;22.67;;;17.50;;
27728;SDS011;15126;42.186;24.340;2022-11-21T06:20:48;23.97;;;16.83;;
27728;SDS011;15126;42.186;24.340;2022-11-21T06:23:16;19.10;;;16.00;;
27728;SDS011;15126;42.186;24.340;2022-11-21T06:25:43;24.23;;;16.13;;
27728;SDS011;15126;42.186;24.340;2022-11-21T06:28:10;21.80;;;15.53;;
27728;SDS011;15126;42.186;24.340;2022-11-21T06:30:37;20.63;;;13.83;;
27728;SDS011;15126;42.186;24.340;2022-11-21T06:33:04;16.40;;;12.37;;
27728;SDS011;15126;42.186;24.340;2022-11-21T06:35:32;18.77;;;12.80;;
27728;SDS011;15126;42.186;24.340;2022-11-21T06:38:05;14.43;;;6.80;;
27728;SDS011;15126;42.186;24.340;2022-11-21T06:40:33;15.30;;;8.63;;
27728;SDS011;15126;42.186;24.340;2022-11-21T06:43:00;10.97;;;9.20;;
27728;SDS011;15126;42.186;24.340;2022-11-21T06:45:26;15.67;;;9.13;;
27728;SDS011;15126;42.186;24.340;2022-11-21T06:47:53;15.83;;;13.87;;
27728;SDS011;15126;42.186;24.340;2022-11-21T06:50:20;16.03;;;12.60;;
27728;SDS011;15126;42.186;24.340;2022-11-21T06:52:47;17.60;;;10.77;;
27728;SDS011;15126;42.186;24.340;2022-11-21T06:55:14;18.07;;;11.70;;
27728;SDS011;15126;42.186;24.340;2022-11-21T06:57:42;15.13;;;12.00;;
27728;SDS011;15126;42.186;24.340;2022-11-21T07:00:09;17.10;;;12.67;;
27728;SDS011;15126;42.186;24.340;2022-11-21T07:02:37;16.90;;;13.13;;
27728;SDS011;15126;42.186;24.340;2022-11-21T07:05:04;17.77;;;14.00;;
27728;SDS011;15126;42.186;24.340;2022-11-21T07:07:31;18.23;;;11.27;;
27728;SDS011;15126;42.186;24.340;2022-11-21T07:09:58;11.17;;;7.03;;
27728;SDS011;15126;42.186;24.340;2022-11-21T07:12:24;16.77;;;8.43;;
27728;SDS011;15126;42.186;24.340;2022-11-21T07:15:10;18.77;;;10.40;;
27728;SDS011;15126;42.186;24.340;2022-11-21T07:17:37;19.30;;;8.93;;
27728;SDS011;15126;42.186;24.340;2022-11-21T07:20:04;13.83;;;8.27;;
27728;SDS011;15126;42.186;24.340;2022-11-21T07:22:32;12.67;;;10.13;;
27728;SDS011;15126;42.186;24.340;2022-11-21T07:24:59;8.20;;;7.07;;
27728;SDS011;15126;42.186;24.340;2022-11-21T07:27:25;9.73;;;5.67;;
27728;SDS011;15126;42.186;24.340;2022-11-21T07:29:52;10.87;;;5.73;;
27728;SDS011;15126;42.186;24.340;2022-11-21T07:32:23;14.10;;;5.87;;
27728;SDS011;15126;42.186;24.340;2022-11-21T07:34:50;8.27;;;5.13;;
27728;SDS011;15126;42.186;24.340;2022-11-21T07:37:16;12.93;;;7.17;;
27728;SDS011;15126;42.186;24.340;2022-11-21T07:39:43;15.10;;;7.27;;
27728;SDS011;15126;42.186;24.340;2022-11-21T07:42:10;17.57;;;6.23;;
27728;SDS011;15126;42.186;24.340;2022-11-21T07:44:37;16.27;;;8.10;;
27728;SDS011;15126;42.186;24.340;2022-11-21T07:47:03;12.40;;;6.43;;
27728;SDS011;15126;42.186;24.340;2022-11-21T07:49:32;11.97;;;6.27;;
27728;SDS011;15126;42.186;24.340;2022-11-21T07:51:59;6.73;;;4.73;;
27728;SDS011;15126;42.186;24.340;2022-11-21T07:54:25;7.50;;;3.90;;
27728;SDS011;15126;42.186;24.340;2022-11-21T07:56:52;11.23;;;4.53;;
27728;SDS011;15126;42.186;24.340;2022-11-21T07:59:19;7.70;;;3.30;;
27728;SDS011;15126;42.186;24.340;2022-11-21T08:01:45;7.13;;;2.93;;
27728;SDS011;15126;42.186;24.340;2022-11-21T08:04:12;7.80;;;3.20;;
27728;SDS011;15126;42.186;24.340;2022-11-21T08:06:40;5.40;;;3.00;;
27728;SDS011;15126;42.186;24.340;2022-11-21T08:09:07;6.00;;;2.13;;
27728;SDS011;15126;42.186;24.340;2022-11-21T08:11:34;5.53;;;2.60;;
27728;SDS011;15126;42.186;24.340;2022-11-21T08:14:01;12.20;;;2.80;;
27728;SDS011;15126;42.186;24.340;2022-11-21T08:16:29;11.13;;;3.67;;
27728;SDS011;15126;42.186;24.340;2022-11-21T08:18:57;6.97;;;2.07;;
27728;SDS011;15126;42.186;24.340;2022-11-21T08:21:24;10.60;;;2.03;;
27728;SDS011;15126;42.186;24.340;2022-11-21T08:23:52;7.47;;;2.50;;
27728;SDS011;15126;42.186;24.340;2022-11-21T08:26:19;7.77;;;2.10;;
27728;SDS011;15126;42.186;24.340;2022-11-21T08:28:46;6.47;;;2.70;;
27728;SDS011;15126;42.186;24.340;2022-11-21T08:31:12;7.07;;;2.47;;
27728;SDS011;15126;42.186;24.340;2022-11-21T08:33:39;6.20;;;2.73;;
27728;SDS011;15126;42.186;24.340;2022-11-21T08:36:06;8.90;;;2.90;;
27728;SDS011;15126;42.186;24.340;2022-11-21T08:38:33;3.77;;;2.00;;
27728;SDS011;15126;42.186;24.340;2022-11-21T08:41:01;4.23;;;1.93;;
27728;SDS011;15126;42.186;24.340;2022-11-21T08:43:46;5.53;;;2.47;;
27728;SDS011;15126;42.186;24.340;2022-11-21T08:46:12;7.40;;;2.20;;
27728;SDS011;15126;42.186;24.340;2022-11-21T08:48:39;5.83;;;1.83;;
27728;SDS011;15126;42.186;24.340;2022-11-21T08:51:06;6.33;;;2.00;;
27728;SDS011;15126;42.186;24.340;2022-11-21T08:53:33;6.90;;;2.80;;
27728;SDS011;15126;42.186;24.340;2022-11-21T08:56:00;5.83;;;3.27;;
27728;SDS011;15126;42.186;24.340;2022-11-21T08:58:30;6.40;;;3.10;;
27728;SDS011;15126;42.186;24.340;2022-11-21T09:00:57;7.07;;;3.57;;
27728;SDS011;15126;42.186;24.340;2022-11-21T09:03:24;11.73;;;4.40;;
27728;SDS011;15126;42.186;24.340;2022-11-21T09:05:51;17.40;;;5.50;;
27728;SDS011;15126;42.186;24.340;2022-11-21T09:08:18;14.73;;;4.80;;
27728;SDS011;15126;42.186;24.340;2022-11-21T09:10:44;8.40;;;3.47;;
27728;SDS011;15126;42.186;24.340;2022-11-21T09:13:12;5.47;;;3.10;;
27728;SDS011;15126;42.186;24.340;2022-11-21T09:15:39;6.10;;;3.10;;
27728;SDS011;15126;42.186;24.340;2022-11-21T09:18:23;7.00;;;3.33;;
27728;SDS011;15126;42.186;24.340;2022-11-21T09:20:50;7.23;;;4.47;;
27728;SDS011;15126;42.186;24.340;2022-11-21T09:23:17;9.03;;;4.73;;
27728;SDS011;15126;42.186;24.340;2022-11-21T09:25:43;12.73;;;5.87;;
27728;SDS011;15126;42.186;24.340;2022-11-21T09:28:13;6.70;;;3.00;;
27728;SDS011;15126;42.186;24.340;2022-11-21T09:30:40;8.50;;;2.27;;
27728;SDS011;15126;42.186;24.340;2022-11-21T09:33:09;3.10;;;1.67;;
27728;SDS011;15126;42.186;24.340;2022-11-21T09:35:37;10.33;;;2.73;;
27728;SDS011;15126;42.186;24.340;2022-11-21T09:38:04;2.80;;;2.50;;
27728;SDS011;15126;42.186;24.340;2022-11-21T09:40:32;8.10;;;4.03;;
27728;SDS011;15126;42.186;24.340;2022-11-21T09:43:12;8.37;;;4.10;;
27728;SDS011;15126;42.186;24.340;2022-11-21T09:46:08;4.53;;;2.40;;
27728;SDS011;15126;42.186;24.340;2022-11-21T09:48:38;3.93;;;2.30;;
27728;SDS011;15126;42.186;24.340;2022-11-21T09:51:13;3.43;;;2.00;;
27728;SDS011;15126;42.186;24.340;2022-11-21T09:53:45;6.13;;;2.60;;
27728;SDS011;15126;42.186;24.340;2022-11-21T09:56:20;7.23;;;2.90;;
27728;SDS011;15126;42.186;24.340;2022-11-21T09:58:50;5.93;;;3.20;;
27728;SDS011;15126;42.186;24.340;2022-11-21T10:01:43;12.77;;;4.07;;
27728;SDS011;15126;42.186;24.340;2022-11-21T10:04:09;4.57;;;3.20;;
27728;SDS011;15126;42.186;24.340;2022-11-21T10:06:37;4.37;;;2.80;;
27728;SDS011;15126;42.186;24.340;2022-11-21T10:09:13;4.10;;;2.67;;
27728;SDS011;15126;42.186;24.340;2022-11-21T10:11:46;4.70;;;2.40;;
27728;SDS011;15126;42.186;24.340;2022-11-21T10:14:43;4.07;;;1.80;;
27728;SDS011;15126;42.186;24.340;2022-11-21T10:17:20;5.53;;;1.83;;
27728;SDS011;15126;42.186;24.340;2022-11-21T10:20:00;5.87;;;1.63;;
27728;SDS011;15126;42.186;24.340;2022-11-21T10:23:20;4.07;;;2.80;;
27728;SDS011;15126;42.186;24.340;2022-11-21T10:26:01;3.33;;;2.13;;
27728;SDS011;15126;42.186;24.340;2022-11-21T10:28:41;5.70;;;2.27;;
27728;SDS011;15126;42.186;24.340;2022-11-21T10:31:13;2.40;;;2.20;;
27728;SDS011;15126;42.186;24.340;2022-11-21T10:33:42;4.50;;;2.70;;
27728;SDS011;15126;42.186;24.340;2022-11-21T10:36:12;2.47;;;2.00;;
27728;SDS011;15126;42.186;24.340;2022-11-21T10:38:48;2.70;;;2.03;;
27728;SDS011;15126;42.186;24.340;2022-11-21T10:41:17;9.70;;;8.80;;
27728;SDS011;15126;42.186;24.340;2022-11-21T10:43:52;3.63;;;3.30;;
27728;SDS011;15126;42.186;24.340;2022-11-21T10:46:52;2.63;;;2.37;;
27728;SDS011;15126;42.186;24.340;2022-11-21T10:49:21;2.37;;;1.73;;
27728;SDS011;15126;42.186;24.340;2022-11-21T10:51:51;4.83;;;4.43;;
27728;SDS011;15126;42.186;24.340;2022-11-21T10:54:25;9.17;;;8.33;;
27728;SDS011;15126;42.186;24.340;2022-11-21T10:56:58;3.40;;;2.87;;
27728;SDS011;15126;42.186;24.340;2022-11-21T10:59:29;4.77;;;2.43;;
27728;SDS011;15126;42.186;24.340;2022-11-21T11:01:57;2.50;;;2.30;;
27728;SDS011;15126;42.186;24.340;2022-11-21T11:04:27;3.10;;;2.70;;
27728;SDS011;15126;42.186;24.340;2022-11-21T11:06:55;4.23;;;1.70;;
27728;SDS011;15126;42.186;24.340;2022-11-21T11:09:25;3.17;;;1.30;;
27728;SDS011;15126;42.186;24.340;2022-11-21T11:12:03;1.90;;;1.70;;
27728;SDS011;15126;42.186;24.340;2022-11-21T11:14:48;1.53;;;1.43;;
27728;SDS011;15126;42.186;24.340;2022-11-21T11:17:24;14.27;;;10.63;;
27728;SDS011;15126;42.186;24.340;2022-11-21T11:20:02;3.70;;;2.77;;
27728;SDS011;15126;42.186;24.340;2022-11-21T11:22:33;5.47;;;2.20;;
27728;SDS011;15126;42.186;24.340;2022-11-21T11:25:01;7.47;;;3.77;;
27728;SDS011;15126;42.186;24.340;2022-11-21T11:27:30;5.53;;;4.03;;
27728;SDS011;15126;42.186;24.340;2022-11-21T11:29:57;4.00;;;2.17;;
27728;SDS011;15126;42.186;24.340;2022-11-21T11:32:31;2.57;;;2.23;;
27728;SDS011;15126;42.186;24.340;2022-11-21T11:35:07;1.67;;;1.23;;
27728;SDS011;15126;42.186;24.340;2022-11-21T11:37:46;1.70;;;1.60;;
27728;SDS011;15126;42.186;24.340;2022-11-21T11:40:20;2.30;;;2.10;;
27728;SDS011;15126;42.186;24.340;2022-11-21T11:42:57;2.37;;;1.40;;
27728;SDS011;15126;42.186;24.340;2022-11-21T11:49:08;3.67;;;2.30;;
27728;SDS011;15126;42.186;24.340;2022-11-21T11:51:40;2.93;;;2.47;;
27728;SDS011;15126;42.186;24.340;2022-11-21T11:54:12;2.23;;;1.90;;
27728;SDS011;15126;42.186;24.340;2022-11-21T11:56:43;4.37;;;4.03;;
27728;SDS011;15126;42.186;24.340;2022-11-21T11:59:12;6.63;;;2.17;;
27728;SDS011;15126;42.186;24.340;2022-11-21T12:01:46;4.83;;;3.10;;
27728;SDS011;15126;42.186;24.340;2022-11-21T12:04:17;4.20;;;2.83;;
27728;SDS011;15126;42.186;24.340;2022-11-21T12:06:49;2.37;;;2.17;;
27728;SDS011;15126;42.186;24.340;2022-11-21T12:09:21;2.30;;;1.63;;
27728;SDS011;15126;42.186;24.340;2022-11-21T12:11:55;6.80;;;4.50;;
27728;SDS011;15126;42.186;24.340;2022-11-21T12:14:42;2.63;;;2.30;;
27728;SDS011;15126;42.186;24.340;2022-11-21T12:17:35;3.87;;;2.17;;
27728;SDS011;15126;42.186;24.340;2022-11-21T12:20:12;3.40;;;2.43;;
27728;SDS011;15126;42.186;24.340;2022-11-21T12:22:43;5.40;;;3.77;;
27728;SDS011;15126;42.186;24.340;2022-11-21T12:25:11;2.60;;;2.37;;
27728;SDS011;15126;42.186;24.340;2022-11-21T12:27:39;3.50;;;1.80;;
27728;SDS011;15126;42.186;24.340;2022-11-21T12:30:16;3.90;;;3.60;;
27728;SDS011;15126;42.186;24.340;2022-11-21T12:32:54;2.07;;;1.87;;
27728;SDS011;15126;42.186;24.340;2022-11-21T12:35:33;2.97;;;1.97;;
27728;SDS011;15126;42.186;24.340;2022-11-21T12:38:18;3.10;;;1.70;;
27728;SDS011;15126;42.186;24.340;2022-11-21T12:41:04;2.97;;;1.50;;
27728;SDS011;15126;42.186;24.340;2022-11-21T12:43:54;1.57;;;1.47;;
27728;SDS011;15126;42.186;24.340;2022-11-21T12:46:30;4.37;;;2.90;;
27728;SDS011;15126;42.186;24.340;2022-11-21T12:49:06;2.67;;;2.47;;
27728;SDS011;15126;42.186;24.340;2022-11-21T12:52:03;5.37;;;3.50;;
27728;SDS011;15126;42.186;24.340;2022-11-21T12:57:47;3.30;;;3.00;;
27728;SDS011;15126;42.186;24.340;2022-11-21T13:00:31;6.83;;;3.80;;
27728;SDS011;15126;42.186;24.340;2022-11-21T13:03:16;4.60;;;4.20;;
27728;SDS011;15126;42.186;24.340;2022-11-21T13:06:02;2.73;;;1.63;;
27728;SDS011;15126;42.186;24.340;2022-11-21T13:08:34;4.97;;;1.57;;
27728;SDS011;15126;42.186;24.340;2022-11-21T13:11:06;2.00;;;1.73;;
27728;SDS011;15126;42.186;24.340;2022-11-21T13:13:58;3.70;;;3.40;;
27728;SDS011;15126;42.186;24.340;2022-11-21T13:16:29;5.83;;;3.13;;
27728;SDS011;15126;42.186;24.340;2022-11-21T13:19:11;2.30;;;2.10;;
27728;SDS011;15126;42.186;24.340;2022-11-21T13:21:45;2.03;;;1.57;;
27728;SDS011;15126;42.186;24.340;2022-11-21T13:27:27;4.87;;;2.47;;
27728;SDS011;15126;42.186;24.340;2022-11-21T13:32:46;5.03;;;2.53;;
27728;SDS011;15126;42.186;24.340;2022-11-21T13:38:30;4.40;;;3.83;;
27728;SDS011;15126;42.186;24.340;2022-11-21T13:44:38;4.47;;;3.00;;
27728;SDS011;15126;42.186;24.340;2022-11-21T13:47:08;4.97;;;2.93;;
27728;SDS011;15126;42.186;24.340;2022-11-21T13:49:55;4.87;;;3.80;;
27728;SDS011;15126;42.186;24.340;2022-11-21T13:52:32;6.97;;;4.10;;
27728;SDS011;15126;42.186;24.340;2022-11-21T13:55:13;4.83;;;3.37;;
27728;SDS011;15126;42.186;24.340;2022-11-21T13:58:10;6.17;;;3.47;;
27728;SDS011;15126;42.186;24.340;2022-11-21T14:03:54;4.13;;;2.93;;
27728;SDS011;15126;42.186;24.340;2022-11-21T14:06:33;3.50;;;2.40;;
27728;SDS011;15126;42.186;24.340;2022-11-21T14:09:03;4.07;;;2.40;;
27728;SDS011;15126;42.186;24.340;2022-11-21T14:11:34;2.10;;;1.90;;
27728;SDS011;15126;42.186;24.340;2022-11-21T14:14:20;2.10;;;1.90;;
27728;SDS011;15126;42.186;24.340;2022-11-21T14:16:51;9.30;;;2.20;;
27728;SDS011;15126;42.186;24.340;2022-11-21T14:19:23;5.83;;;2.63;;
27728;SDS011;15126;42.186;24.340;2022-11-21T14:21:52;3.37;;;3.07;;
27728;SDS011;15126;42.186;24.340;2022-11-21T14:24:20;3.53;;;3.23;;
27728;SDS011;15126;42.186;24.340;2022-11-21T14:26:47;3.07;;;2.67;;
27728;SDS011;15126;42.186;24.340;2022-11-21T14:29:17;15.67;;;12.93;;
27728;SDS011;15126;42.186;24.340;2022-11-21T14:31:47;21.67;;;18.13;;
27728;SDS011;15126;42.186;24.340;2022-11-21T14:34:24;14.17;;;11.37;;
27728;SDS011;15126;42.186;24.340;2022-11-21T14:36:52;12.00;;;10.73;;
27728;SDS011;15126;42.186;24.340;2022-11-21T14:39:20;15.53;;;12.17;;
27728;SDS011;15126;42.186;24.340;2022-11-21T14:41:51;25.80;;;20.53;;
27728;SDS011;15126;42.186;24.340;2022-11-21T14:44:21;14.50;;;8.97;;
27728;SDS011;15126;42.186;24.340;2022-11-21T14:46:48;16.53;;;13.10;;
27728;SDS011;15126;42.186;24.340;2022-11-21T14:49:18;10.63;;;7.97;;
27728;SDS011;15126;42.186;24.340;2022-11-21T14:51:48;9.07;;;7.00;;
27728;SDS011;15126;42.186;24.340;2022-11-21T14:54:18;8.67;;;7.40;;
27728;SDS011;15126;42.186;24.340;2022-11-21T14:56:48;22.60;;;15.70;;
27728;SDS011;15126;42.186;24.340;2022-11-21T14:59:22;14.67;;;10.10;;
27728;SDS011;15126;42.186;24.340;2022-11-21T15:01:54;10.23;;;8.13;;
27728;SDS011;15126;42.186;24.340;2022-11-21T15:04:28;13.23;;;10.77;;